sensor_id;sensor_type;location;lat;lon;timestamp;temperature;humidity
6164;DHT22;3114;48.362;10.994;2023-03-19T00:00:14;13.10;99.90
6164;DHT22;3114;48.362;10.994;2023-03-19T00:02:43;13.20;99.90
6164;DHT22;3114;48.362;10.994;2023-03-19T00:05:14;13.30;99.90
6164;DHT22;3114;48.362;10.994;2023-03-19T00:07:41;13.30;99.90
6164;DHT22;3114;48.362;10.994;2023-03-19T00:10:09;13.20;99.90
6164;DHT22;3114;48.362;10.994;2023-03-19T00:12:36;13.10;99.90
6164;DHT22;3114;48.362;10.994;2023-03-19T00:15:03;13.10;99.90
6164;DHT22;3114;48.362;10.994;2023-03-19T00:17:32;13.60;99.90
6164;DHT22;3114;48.362;10.994;2023-03-19T00:20:00;13.10;99.90
6164;DHT22;3114;48.362;10.994;2023-03-19T00:22:27;13.90;99.90
6164;DHT22;3114;48.362;10.994;2023-03-19T00:24:54;13.30;99.90
6164;DHT22;3114;48.362;10.994;2023-03-19T00:27:21;14.30;99.90
6164;DHT22;3114;48.362;10.994;2023-03-19T00:29:47;13.00;99.90
6164;DHT22;3114;48.362;10.994;2023-03-19T00:32:15;13.20;99.90
6164;DHT22;3114;48.362;10.994;2023-03-19T00:34:42;12.80;99.90
6164;DHT22;3114;48.362;10.994;2023-03-19T00:37:10;13.00;99.90
6164;DHT22;3114;48.362;10.994;2023-03-19T00:39:37;13.70;99.90
6164;DHT22;3114;48.362;10.994;2023-03-19T00:42:06;13.50;99.90
6164;DHT22;3114;48.362;10.994;2023-03-19T00:44:34;13.00;99.90
6164;DHT22;3114;48.362;10.994;2023-03-19T00:47:01;13.00;99.90
6164;DHT22;3114;48.362;10.994;2023-03-19T00:49:28;13.00;99.90
6164;DHT22;3114;48.362;10.994;2023-03-19T00:51:55;12.80;99.90
6164;DHT22;3114;48.362;10.994;2023-03-19T00:54:25;12.60;99.90
6164;DHT22;3114;48.362;10.994;2023-03-19T00:56:52;12.70;99.90
6164;DHT22;3114;48.362;10.994;2023-03-19T00:59:18;12.80;99.90
6164;DHT22;3114;48.362;10.994;2023-03-19T01:01:48;12.90;99.90
6164;DHT22;3114;48.362;10.994;2023-03-19T01:04:15;13.30;99.90
6164;DHT22;3114;48.362;10.994;2023-03-19T01:06:43;13.10;99.90
6164;DHT22;3114;48.362;10.994;2023-03-19T01:09:10;13.10;99.90
6164;DHT22;3114;48.362;10.994;2023-03-19T01:11:40;13.10;99.90
6164;DHT22;3114;48.362;10.994;2023-03-19T01:14:07;13.10;99.90
6164;DHT22;3114;48.362;10.994;2023-03-19T01:16:34;13.20;99.90
6164;DHT22;3114;48.362;10.994;2023-03-19T01:19:01;13.80;99.90
6164;DHT22;3114;48.362;10.994;2023-03-19T01:21:28;13.20;99.90
6164;DHT22;3114;48.362;10.994;2023-03-19T01:23:56;13.10;99.90
6164;DHT22;3114;48.362;10.994;2023-03-19T01:26:23;13.10;99.90
6164;DHT22;3114;48.362;10.994;2023-03-19T01:28:52;12.90;99.90
6164;DHT22;3114;48.362;10.994;2023-03-19T01:31:19;12.90;99.90
6164;DHT22;3114;48.362;10.994;2023-03-19T01:33:46;12.90;99.90
6164;DHT22;3114;48.362;10.994;2023-03-19T01:36:13;12.80;99.90
6164;DHT22;3114;48.362;10.994;2023-03-19T01:38:40;12.90;99.90
6164;DHT22;3114;48.362;10.994;2023-03-19T01:41:07;12.50;99.90
6164;DHT22;3114;48.362;10.994;2023-03-19T01:43:34;12.30;99.90
6164;DHT22;3114;48.362;10.994;2023-03-19T01:46:05;12.30;99.90
6164;DHT22;3114;48.362;10.994;2023-03-19T01:48:37;12.30;99.90
6164;DHT22;3114;48.362;10.994;2023-03-19T01:51:07;12.40;99.90
6164;DHT22;3114;48.362;10.994;2023-03-19T01:53:39;12.20;99.90
6164;DHT22;3114;48.362;10.994;2023-03-19T01:56:13;11.90;99.90
6164;DHT22;3114;48.362;10.994;2023-03-19T01:58:42;11.80;99.90
6164;DHT22;3114;48.362;10.994;2023-03-19T02:01:11;11.90;99.90
6164;DHT22;3114;48.362;10.994;2023-03-19T02:03:39;12.10;99.90
6164;DHT22;3114;48.362;10.994;2023-03-19T02:06:07;12.10;99.90
6164;DHT22;3114;48.362;10.994;2023-03-19T02:08:36;12.10;99.90
6164;DHT22;3114;48.362;10.994;2023-03-19T02:11:04;12.10;99.90
6164;DHT22;3114;48.362;10.994;2023-03-19T02:13:33;12.20;99.90
6164;DHT22;3114;48.362;10.994;2023-03-19T02:16:00;12.30;99.90
6164;DHT22;3114;48.362;10.994;2023-03-19T02:18:28;12.40;99.90
6164;DHT22;3114;48.362;10.994;2023-03-19T02:21:00;12.40;99.90
6164;DHT22;3114;48.362;10.994;2023-03-19T02:23:34;12.40;99.90
6164;DHT22;3114;48.362;10.994;2023-03-19T02:26:06;12.30;99.90
6164;DHT22;3114;48.362;10.994;2023-03-19T02:28:36;12.30;99.90
6164;DHT22;3114;48.362;10.994;2023-03-19T02:31:04;12.40;99.90
6164;DHT22;3114;48.362;10.994;2023-03-19T02:33:31;12.30;99.90
6164;DHT22;3114;48.362;10.994;2023-03-19T02:35:59;12.30;99.90
6164;DHT22;3114;48.362;10.994;2023-03-19T02:38:30;12.40;99.90
6164;DHT22;3114;48.362;10.994;2023-03-19T02:41:00;12.40;99.90
6164;DHT22;3114;48.362;10.994;2023-03-19T02:43:31;12.40;99.90
6164;DHT22;3114;48.362;10.994;2023-03-19T02:45:58;12.40;99.90
6164;DHT22;3114;48.362;10.994;2023-03-19T02:48:25;12.30;99.90
6164;DHT22;3114;48.362;10.994;2023-03-19T02:50:52;12.40;99.90
6164;DHT22;3114;48.362;10.994;2023-03-19T02:53:21;12.70;99.90
6164;DHT22;3114;48.362;10.994;2023-03-19T02:55:48;12.40;99.90
6164;DHT22;3114;48.362;10.994;2023-03-19T02:58:16;12.30;99.90
6164;DHT22;3114;48.362;10.994;2023-03-19T03:00:44;12.30;99.90
6164;DHT22;3114;48.362;10.994;2023-03-19T03:03:11;12.50;99.90
6164;DHT22;3114;48.362;10.994;2023-03-19T03:05:38;12.40;99.90
6164;DHT22;3114;48.362;10.994;2023-03-19T03:08:05;12.50;99.90
6164;DHT22;3114;48.362;10.994;2023-03-19T03:10:32;12.90;99.90
6164;DHT22;3114;48.362;10.994;2023-03-19T03:12:59;12.60;99.90
6164;DHT22;3114;48.362;10.994;2023-03-19T03:15:26;12.40;99.90
6164;DHT22;3114;48.362;10.994;2023-03-19T03:17:55;12.10;99.90
6164;DHT22;3114;48.362;10.994;2023-03-19T03:20:22;12.10;99.90
6164;DHT22;3114;48.362;10.994;2023-03-19T03:22:49;12.20;99.90
6164;DHT22;3114;48.362;10.994;2023-03-19T03:25:16;12.10;99.90
6164;DHT22;3114;48.362;10.994;2023-03-19T03:27:43;12.10;99.90
6164;DHT22;3114;48.362;10.994;2023-03-19T03:30:11;12.20;99.90
6164;DHT22;3114;48.362;10.994;2023-03-19T03:32:41;11.40;99.90
6164;DHT22;3114;48.362;10.994;2023-03-19T03:35:09;12.10;99.90
6164;DHT22;3114;48.362;10.994;2023-03-19T03:37:37;12.40;99.90
6164;DHT22;3114;48.362;10.994;2023-03-19T03:40:05;12.30;99.90
6164;DHT22;3114;48.362;10.994;2023-03-19T03:42:33;12.40;99.90
6164;DHT22;3114;48.362;10.994;2023-03-19T03:45:00;12.30;99.90
6164;DHT22;3114;48.362;10.994;2023-03-19T03:47:27;12.30;99.90
6164;DHT22;3114;48.362;10.994;2023-03-19T03:49:54;12.20;99.90
6164;DHT22;3114;48.362;10.994;2023-03-19T03:52:22;12.20;99.90
6164;DHT22;3114;48.362;10.994;2023-03-19T03:54:49;12.10;99.90
6164;DHT22;3114;48.362;10.994;2023-03-19T03:57:16;12.00;99.90
6164;DHT22;3114;48.362;10.994;2023-03-19T03:59:43;12.20;99.90
6164;DHT22;3114;48.362;10.994;2023-03-19T04:02:10;12.00;99.90
6164;DHT22;3114;48.362;10.994;2023-03-19T04:04:37;11.70;99.90
6164;DHT22;3114;48.362;10.994;2023-03-19T04:07:04;11.70;99.90
6164;DHT22;3114;48.362;10.994;2023-03-19T04:09:32;11.30;99.90
6164;DHT22;3114;48.362;10.994;2023-03-19T04:12:00;11.20;99.90
6164;DHT22;3114;48.362;10.994;2023-03-19T04:14:27;10.90;99.90
6164;DHT22;3114;48.362;10.994;2023-03-19T04:16:54;10.70;99.90
6164;DHT22;3114;48.362;10.994;2023-03-19T04:19:21;10.60;99.90
6164;DHT22;3114;48.362;10.994;2023-03-19T04:21:48;10.60;99.90
6164;DHT22;3114;48.362;10.994;2023-03-19T04:24:15;10.60;99.90
6164;DHT22;3114;48.362;10.994;2023-03-19T04:26:43;10.60;99.90
6164;DHT22;3114;48.362;10.994;2023-03-19T04:29:13;10.40;99.90
6164;DHT22;3114;48.362;10.994;2023-03-19T04:31:41;10.30;99.90
6164;DHT22;3114;48.362;10.994;2023-03-19T04:34:08;10.20;99.90
6164;DHT22;3114;48.362;10.994;2023-03-19T04:36:36;10.30;99.90
6164;DHT22;3114;48.362;10.994;2023-03-19T04:39:04;10.10;99.90
6164;DHT22;3114;48.362;10.994;2023-03-19T04:41:31;10.30;99.90
6164;DHT22;3114;48.362;10.994;2023-03-19T04:43:59;10.40;99.90
6164;DHT22;3114;48.362;10.994;2023-03-19T04:46:26;10.50;99.90
6164;DHT22;3114;48.362;10.994;2023-03-19T04:48:55;10.50;99.90
6164;DHT22;3114;48.362;10.994;2023-03-19T04:51:21;10.50;99.90
6164;DHT22;3114;48.362;10.994;2023-03-19T04:53:48;10.50;99.90
6164;DHT22;3114;48.362;10.994;2023-03-19T04:56:15;10.60;99.90
6164;DHT22;3114;48.362;10.994;2023-03-19T04:58:43;10.50;99.90
6164;DHT22;3114;48.362;10.994;2023-03-19T05:01:12;10.40;99.90
6164;DHT22;3114;48.362;10.994;2023-03-19T05:03:39;10.30;99.90
6164;DHT22;3114;48.362;10.994;2023-03-19T05:06:06;10.30;99.90
6164;DHT22;3114;48.362;10.994;2023-03-19T05:08:32;10.30;99.90
6164;DHT22;3114;48.362;10.994;2023-03-19T05:11:00;10.20;99.90
6164;DHT22;3114;48.362;10.994;2023-03-19T05:13:27;10.10;99.90
6164;DHT22;3114;48.362;10.994;2023-03-19T05:15:54;10.00;99.90
6164;DHT22;3114;48.362;10.994;2023-03-19T05:18:22;10.00;99.90
6164;DHT22;3114;48.362;10.994;2023-03-19T05:20:50;10.40;99.90
6164;DHT22;3114;48.362;10.994;2023-03-19T05:23:17;11.10;99.90
6164;DHT22;3114;48.362;10.994;2023-03-19T05:25:44;10.00;99.90
6164;DHT22;3114;48.362;10.994;2023-03-19T05:28:12;9.90;99.90
6164;DHT22;3114;48.362;10.994;2023-03-19T05:30:39;10.00;99.90
6164;DHT22;3114;48.362;10.994;2023-03-19T05:33:07;10.20;99.90
6164;DHT22;3114;48.362;10.994;2023-03-19T05:35:36;9.20;99.90
6164;DHT22;3114;48.362;10.994;2023-03-19T05:38:03;10.60;99.90
6164;DHT22;3114;48.362;10.994;2023-03-19T05:40:34;10.70;99.90
6164;DHT22;3114;48.362;10.994;2023-03-19T05:43:01;10.80;99.90
6164;DHT22;3114;48.362;10.994;2023-03-19T05:45:28;10.90;99.90
6164;DHT22;3114;48.362;10.994;2023-03-19T05:47:55;11.00;99.90
6164;DHT22;3114;48.362;10.994;2023-03-19T05:50:22;11.10;99.90
6164;DHT22;3114;48.362;10.994;2023-03-19T05:52:50;11.20;99.90
6164;DHT22;3114;48.362;10.994;2023-03-19T05:55:17;11.30;99.90
6164;DHT22;3114;48.362;10.994;2023-03-19T05:57:44;11.40;99.90
6164;DHT22;3114;48.362;10.994;2023-03-19T06:00:12;11.40;99.90
6164;DHT22;3114;48.362;10.994;2023-03-19T06:02:40;11.50;99.90
6164;DHT22;3114;48.362;10.994;2023-03-19T06:05:08;11.50;99.90
6164;DHT22;3114;48.362;10.994;2023-03-19T06:07:36;11.30;99.90
6164;DHT22;3114;48.362;10.994;2023-03-19T06:10:05;11.20;99.90
6164;DHT22;3114;48.362;10.994;2023-03-19T06:12:32;11.20;99.90
6164;DHT22;3114;48.362;10.994;2023-03-19T06:14:59;11.20;99.90
6164;DHT22;3114;48.362;10.994;2023-03-19T06:17:26;11.20;99.90
6164;DHT22;3114;48.362;10.994;2023-03-19T06:19:52;10.90;99.90
6164;DHT22;3114;48.362;10.994;2023-03-19T06:22:19;10.70;99.90
6164;DHT22;3114;48.362;10.994;2023-03-19T06:24:46;10.70;99.90
6164;DHT22;3114;48.362;10.994;2023-03-19T06:27:14;10.90;99.90
6164;DHT22;3114;48.362;10.994;2023-03-19T06:29:41;10.60;99.90
6164;DHT22;3114;48.362;10.994;2023-03-19T06:32:09;10.70;99.90
6164;DHT22;3114;48.362;10.994;2023-03-19T06:34:36;10.90;99.90
6164;DHT22;3114;48.362;10.994;2023-03-19T06:37:03;10.90;99.90
6164;DHT22;3114;48.362;10.994;2023-03-19T06:39:31;10.80;99.90
6164;DHT22;3114;48.362;10.994;2023-03-19T06:41:59;10.90;99.90
6164;DHT22;3114;48.362;10.994;2023-03-19T06:44:27;11.00;99.90
6164;DHT22;3114;48.362;10.994;2023-03-19T06:46:55;11.00;99.90
6164;DHT22;3114;48.362;10.994;2023-03-19T06:49:24;11.00;99.90
6164;DHT22;3114;48.362;10.994;2023-03-19T06:51:51;11.10;99.90
6164;DHT22;3114;48.362;10.994;2023-03-19T06:54:19;11.00;99.90
6164;DHT22;3114;48.362;10.994;2023-03-19T06:56:46;11.20;99.90
6164;DHT22;3114;48.362;10.994;2023-03-19T06:59:13;11.20;99.90
6164;DHT22;3114;48.362;10.994;2023-03-19T07:01:41;11.40;99.90
6164;DHT22;3114;48.362;10.994;2023-03-19T07:04:11;11.30;99.90
6164;DHT22;3114;48.362;10.994;2023-03-19T07:06:38;11.20;99.90
6164;DHT22;3114;48.362;10.994;2023-03-19T07:09:05;11.40;99.90
6164;DHT22;3114;48.362;10.994;2023-03-19T07:11:32;11.40;99.90
6164;DHT22;3114;48.362;10.994;2023-03-19T07:13:59;11.30;99.90
6164;DHT22;3114;48.362;10.994;2023-03-19T07:16:26;13.00;99.90
6164;DHT22;3114;48.362;10.994;2023-03-19T07:18:55;11.30;99.90
6164;DHT22;3114;48.362;10.994;2023-03-19T07:21:22;12.30;99.90
6164;DHT22;3114;48.362;10.994;2023-03-19T07:23:49;11.30;99.90
6164;DHT22;3114;48.362;10.994;2023-03-19T07:26:16;11.30;99.90
6164;DHT22;3114;48.362;10.994;2023-03-19T07:28:43;11.00;99.90
6164;DHT22;3114;48.362;10.994;2023-03-19T07:31:10;11.10;99.90
6164;DHT22;3114;48.362;10.994;2023-03-19T07:33:37;11.30;99.90
6164;DHT22;3114;48.362;10.994;2023-03-19T07:36:07;11.10;99.90
6164;DHT22;3114;48.362;10.994;2023-03-19T07:38:35;11.20;99.90
6164;DHT22;3114;48.362;10.994;2023-03-19T07:41:03;11.20;99.90
6164;DHT22;3114;48.362;10.994;2023-03-19T07:43:30;11.30;99.90
6164;DHT22;3114;48.362;10.994;2023-03-19T07:45:57;11.30;99.90
6164;DHT22;3114;48.362;10.994;2023-03-19T07:48:25;11.50;99.90
6164;DHT22;3114;48.362;10.994;2023-03-19T07:50:52;12.20;99.90
6164;DHT22;3114;48.362;10.994;2023-03-19T07:53:22;11.80;99.90
6164;DHT22;3114;48.362;10.994;2023-03-19T07:55:49;11.70;99.90
6164;DHT22;3114;48.362;10.994;2023-03-19T07:58:16;12.90;99.90
6164;DHT22;3114;48.362;10.994;2023-03-19T08:00:45;12.10;99.90
6164;DHT22;3114;48.362;10.994;2023-03-19T08:03:12;11.70;99.90
6164;DHT22;3114;48.362;10.994;2023-03-19T08:05:39;11.80;99.90
6164;DHT22;3114;48.362;10.994;2023-03-19T08:08:06;11.90;99.90
6164;DHT22;3114;48.362;10.994;2023-03-19T08:10:37;12.00;99.90
6164;DHT22;3114;48.362;10.994;2023-03-19T08:13:04;12.10;99.90
6164;DHT22;3114;48.362;10.994;2023-03-19T08:15:31;12.10;99.90
6164;DHT22;3114;48.362;10.994;2023-03-19T08:18:05;11.80;99.90
6164;DHT22;3114;48.362;10.994;2023-03-19T08:20:32;11.90;99.90
6164;DHT22;3114;48.362;10.994;2023-03-19T08:22:59;13.00;99.90
6164;DHT22;3114;48.362;10.994;2023-03-19T08:25:28;11.30;99.90
6164;DHT22;3114;48.362;10.994;2023-03-19T08:27:58;11.30;99.90
6164;DHT22;3114;48.362;10.994;2023-03-19T08:30:25;11.10;99.90
6164;DHT22;3114;48.362;10.994;2023-03-19T08:32:53;11.40;99.90
6164;DHT22;3114;48.362;10.994;2023-03-19T08:35:22;11.10;99.90
6164;DHT22;3114;48.362;10.994;2023-03-19T08:37:51;10.90;99.90
6164;DHT22;3114;48.362;10.994;2023-03-19T08:40:21;11.10;99.90
6164;DHT22;3114;48.362;10.994;2023-03-19T08:42:48;11.00;99.90
6164;DHT22;3114;48.362;10.994;2023-03-19T08:45:20;10.90;99.90
6164;DHT22;3114;48.362;10.994;2023-03-19T08:47:47;11.00;99.90
6164;DHT22;3114;48.362;10.994;2023-03-19T08:50:15;11.30;99.90
6164;DHT22;3114;48.362;10.994;2023-03-19T08:52:42;11.20;99.90
6164;DHT22;3114;48.362;10.994;2023-03-19T08:55:09;11.30;99.90
6164;DHT22;3114;48.362;10.994;2023-03-19T08:57:37;12.50;99.90
6164;DHT22;3114;48.362;10.994;2023-03-19T09:00:05;11.40;99.90
6164;DHT22;3114;48.362;10.994;2023-03-19T09:02:34;11.30;99.90
6164;DHT22;3114;48.362;10.994;2023-03-19T09:05:01;11.50;99.90
6164;DHT22;3114;48.362;10.994;2023-03-19T09:07:28;11.50;99.90
6164;DHT22;3114;48.362;10.994;2023-03-19T09:09:55;11.40;99.90
6164;DHT22;3114;48.362;10.994;2023-03-19T09:12:22;12.00;99.90
6164;DHT22;3114;48.362;10.994;2023-03-19T09:14:51;11.70;99.90
6164;DHT22;3114;48.362;10.994;2023-03-19T09:17:18;11.80;99.90
6164;DHT22;3114;48.362;10.994;2023-03-19T09:19:46;12.00;99.90
6164;DHT22;3114;48.362;10.994;2023-03-19T09:22:13;12.30;99.90
6164;DHT22;3114;48.362;10.994;2023-03-19T09:24:47;12.40;99.90
6164;DHT22;3114;48.362;10.994;2023-03-19T09:27:17;12.30;99.90
6164;DHT22;3114;48.362;10.994;2023-03-19T09:29:45;12.70;99.90
6164;DHT22;3114;48.362;10.994;2023-03-19T09:32:16;12.90;99.90
6164;DHT22;3114;48.362;10.994;2023-03-19T09:34:43;11.40;99.90
6164;DHT22;3114;48.362;10.994;2023-03-19T09:37:12;12.50;99.90
6164;DHT22;3114;48.362;10.994;2023-03-19T09:39:40;12.50;99.90
6164;DHT22;3114;48.362;10.994;2023-03-19T09:42:23;12.50;99.90
6164;DHT22;3114;48.362;10.994;2023-03-19T09:44:53;12.50;99.90
6164;DHT22;3114;48.362;10.994;2023-03-19T09:47:26;12.30;99.90
6164;DHT22;3114;48.362;10.994;2023-03-19T09:49:58;12.40;99.90
6164;DHT22;3114;48.362;10.994;2023-03-19T09:52:40;12.50;99.90
6164;DHT22;3114;48.362;10.994;2023-03-19T09:55:19;12.50;99.90
6164;DHT22;3114;48.362;10.994;2023-03-19T09:57:50;12.40;99.90
6164;DHT22;3114;48.362;10.994;2023-03-19T10:00:24;12.50;99.90
6164;DHT22;3114;48.362;10.994;2023-03-19T10:02:55;12.50;99.90
6164;DHT22;3114;48.362;10.994;2023-03-19T10:05:29;12.60;99.90
6164;DHT22;3114;48.362;10.994;2023-03-19T10:08:25;12.90;99.90
6164;DHT22;3114;48.362;10.994;2023-03-19T10:11:03;13.20;99.90
6164;DHT22;3114;48.362;10.994;2023-03-19T10:13:42;13.00;99.90
6164;DHT22;3114;48.362;10.994;2023-03-19T10:16:15;13.20;99.90
6164;DHT22;3114;48.362;10.994;2023-03-19T10:18:46;13.50;99.90
6164;DHT22;3114;48.362;10.994;2023-03-19T10:21:17;13.40;99.90
6164;DHT22;3114;48.362;10.994;2023-03-19T10:23:47;13.20;99.90
6164;DHT22;3114;48.362;10.994;2023-03-19T10:26:18;13.50;99.90
6164;DHT22;3114;48.362;10.994;2023-03-19T10:28:56;13.50;99.90
6164;DHT22;3114;48.362;10.994;2023-03-19T10:31:27;13.90;99.90
6164;DHT22;3114;48.362;10.994;2023-03-19T10:34:05;13.50;99.90
6164;DHT22;3114;48.362;10.994;2023-03-19T10:36:36;13.70;99.90
6164;DHT22;3114;48.362;10.994;2023-03-19T10:39:05;13.50;99.90
6164;DHT22;3114;48.362;10.994;2023-03-19T10:41:47;13.80;99.90
6164;DHT22;3114;48.362;10.994;2023-03-19T10:44:26;13.80;99.90
6164;DHT22;3114;48.362;10.994;2023-03-19T10:46:57;13.90;99.90
6164;DHT22;3114;48.362;10.994;2023-03-19T10:49:24;14.20;99.90
6164;DHT22;3114;48.362;10.994;2023-03-19T10:51:55;13.90;99.90
6164;DHT22;3114;48.362;10.994;2023-03-19T10:54:25;14.60;99.90
6164;DHT22;3114;48.362;10.994;2023-03-19T10:56:54;14.80;99.90
6164;DHT22;3114;48.362;10.994;2023-03-19T10:59:25;14.70;99.90
6164;DHT22;3114;48.362;10.994;2023-03-19T11:01:57;14.70;99.90
6164;DHT22;3114;48.362;10.994;2023-03-19T11:04:25;14.60;99.90
6164;DHT22;3114;48.362;10.994;2023-03-19T11:06:55;14.30;99.90
6164;DHT22;3114;48.362;10.994;2023-03-19T11:09:32;14.00;99.90
6164;DHT22;3114;48.362;10.994;2023-03-19T11:12:06;14.00;99.90
6164;DHT22;3114;48.362;10.994;2023-03-19T11:14:35;14.20;99.90
6164;DHT22;3114;48.362;10.994;2023-03-19T11:17:05;14.40;99.90
6164;DHT22;3114;48.362;10.994;2023-03-19T11:19:39;14.10;99.90
6164;DHT22;3114;48.362;10.994;2023-03-19T11:22:11;14.20;99.90
6164;DHT22;3114;48.362;10.994;2023-03-19T11:24:48;14.70;99.90
6164;DHT22;3114;48.362;10.994;2023-03-19T11:27:17;15.40;99.90
6164;DHT22;3114;48.362;10.994;2023-03-19T11:29:45;15.40;99.90
6164;DHT22;3114;48.362;10.994;2023-03-19T11:32:27;15.40;99.90
6164;DHT22;3114;48.362;10.994;2023-03-19T11:34:59;15.10;99.90
6164;DHT22;3114;48.362;10.994;2023-03-19T11:37:32;14.80;99.90
6164;DHT22;3114;48.362;10.994;2023-03-19T11:40:08;14.70;99.90
6164;DHT22;3114;48.362;10.994;2023-03-19T11:42:56;15.20;99.90
6164;DHT22;3114;48.362;10.994;2023-03-19T11:45:31;15.60;99.90
6164;DHT22;3114;48.362;10.994;2023-03-19T11:48:11;15.80;99.90
6164;DHT22;3114;48.362;10.994;2023-03-19T11:50:49;16.00;99.90
6164;DHT22;3114;48.362;10.994;2023-03-19T11:53:25;16.00;99.90
6164;DHT22;3114;48.362;10.994;2023-03-19T11:56:04;15.90;99.90
6164;DHT22;3114;48.362;10.994;2023-03-19T11:59:19;15.60;99.90
6164;DHT22;3114;48.362;10.994;2023-03-19T12:02:16;15.40;99.90
6164;DHT22;3114;48.362;10.994;2023-03-19T12:04:59;15.30;99.90
6164;DHT22;3114;48.362;10.994;2023-03-19T12:07:34;15.90;99.90
6164;DHT22;3114;48.362;10.994;2023-03-19T12:10:22;16.90;99.90
6164;DHT22;3114;48.362;10.994;2023-03-19T12:12:59;18.30;99.90
6164;DHT22;3114;48.362;10.994;2023-03-19T12:15:34;18.90;99.90
6164;DHT22;3114;48.362;10.994;2023-03-19T12:18:11;19.30;99.90
6164;DHT22;3114;48.362;10.994;2023-03-19T12:20:51;20.70;99.90
6164;DHT22;3114;48.362;10.994;2023-03-19T12:23:31;22.30;99.90
6164;DHT22;3114;48.362;10.994;2023-03-19T12:26:06;22.80;99.90
6164;DHT22;3114;48.362;10.994;2023-03-19T12:28:39;22.90;99.90
6164;DHT22;3114;48.362;10.994;2023-03-19T12:31:32;24.20;99.90
6164;DHT22;3114;48.362;10.994;2023-03-19T12:34:17;25.80;99.90
6164;DHT22;3114;48.362;10.994;2023-03-19T12:36:49;25.60;99.90
6164;DHT22;3114;48.362;10.994;2023-03-19T12:39:23;24.70;99.90
6164;DHT22;3114;48.362;10.994;2023-03-19T12:41:53;23.40;99.90
6164;DHT22;3114;48.362;10.994;2023-03-19T12:44:25;22.50;99.90
6164;DHT22;3114;48.362;10.994;2023-03-19T12:46:58;21.90;99.90
6164;DHT22;3114;48.362;10.994;2023-03-19T12:49:31;22.00;99.90
6164;DHT22;3114;48.362;10.994;2023-03-19T12:52:06;23.00;99.90
6164;DHT22;3114;48.362;10.994;2023-03-19T12:54:38;23.70;99.90
6164;DHT22;3114;48.362;10.994;2023-03-19T12:57:11;24.50;99.90
6164;DHT22;3114;48.362;10.994;2023-03-19T12:59:47;24.60;99.90
6164;DHT22;3114;48.362;10.994;2023-03-19T13:02:21;25.00;99.90
6164;DHT22;3114;48.362;10.994;2023-03-19T13:04:53;25.50;99.90
6164;DHT22;3114;48.362;10.994;2023-03-19T13:07:25;25.30;99.90
6164;DHT22;3114;48.362;10.994;2023-03-19T13:09:59;24.30;99.90
6164;DHT22;3114;48.362;10.994;2023-03-19T13:12:29;22.60;99.90
6164;DHT22;3114;48.362;10.994;2023-03-19T13:15:02;21.90;99.90
6164;DHT22;3114;48.362;10.994;2023-03-19T13:17:36;22.10;99.90
6164;DHT22;3114;48.362;10.994;2023-03-19T13:20:16;23.50;99.90
6164;DHT22;3114;48.362;10.994;2023-03-19T13:26:18;23.60;99.90
6164;DHT22;3114;48.362;10.994;2023-03-19T13:28:59;23.20;99.90
6164;DHT22;3114;48.362;10.994;2023-03-19T13:31:32;22.20;99.90
6164;DHT22;3114;48.362;10.994;2023-03-19T13:34:01;22.00;99.90
6164;DHT22;3114;48.362;10.994;2023-03-19T13:36:30;21.50;99.90
6164;DHT22;3114;48.362;10.994;2023-03-19T13:39:01;21.50;99.90
6164;DHT22;3114;48.362;10.994;2023-03-19T13:42:21;22.00;99.90
6164;DHT22;3114;48.362;10.994;2023-03-19T13:44:50;23.10;99.90
6164;DHT22;3114;48.362;10.994;2023-03-19T13:47:40;23.40;99.90
6164;DHT22;3114;48.362;10.994;2023-03-19T13:50:23;22.30;99.90
6164;DHT22;3114;48.362;10.994;2023-03-19T13:52:52;21.90;99.90
6164;DHT22;3114;48.362;10.994;2023-03-19T13:55:43;21.30;99.90
6164;DHT22;3114;48.362;10.994;2023-03-19T13:58:20;21.10;99.90
6164;DHT22;3114;48.362;10.994;2023-03-19T14:01:06;20.40;99.90
6164;DHT22;3114;48.362;10.994;2023-03-19T14:03:39;19.40;99.90
6164;DHT22;3114;48.362;10.994;2023-03-19T14:06:29;19.90;99.90
6164;DHT22;3114;48.362;10.994;2023-03-19T14:08:58;20.40;99.90
6164;DHT22;3114;48.362;10.994;2023-03-19T14:11:29;20.30;99.90
6164;DHT22;3114;48.362;10.994;2023-03-19T14:14:00;20.50;99.90
6164;DHT22;3114;48.362;10.994;2023-03-19T14:16:33;20.60;99.90
6164;DHT22;3114;48.362;10.994;2023-03-19T14:19:03;20.70;99.90
6164;DHT22;3114;48.362;10.994;2023-03-19T14:21:40;20.60;99.90
6164;DHT22;3114;48.362;10.994;2023-03-19T14:24:27;20.50;99.90
6164;DHT22;3114;48.362;10.994;2023-03-19T14:26:57;19.60;99.90
6164;DHT22;3114;48.362;10.994;2023-03-19T14:29:27;19.60;99.90
6164;DHT22;3114;48.362;10.994;2023-03-19T14:31:58;19.80;99.90
6164;DHT22;3114;48.362;10.994;2023-03-19T14:34:31;20.00;99.90
6164;DHT22;3114;48.362;10.994;2023-03-19T14:37:02;20.20;99.90
6164;DHT22;3114;48.362;10.994;2023-03-19T14:39:33;20.10;99.90
6164;DHT22;3114;48.362;10.994;2023-03-19T14:42:06;20.30;99.90
6164;DHT22;3114;48.362;10.994;2023-03-19T14:44:59;20.00;99.90
6164;DHT22;3114;48.362;10.994;2023-03-19T14:48:01;19.80;99.90
6164;DHT22;3114;48.362;10.994;2023-03-19T14:50:52;19.60;99.90
6164;DHT22;3114;48.362;10.994;2023-03-19T14:53:26;19.60;99.90
6164;DHT22;3114;48.362;10.994;2023-03-19T14:55:55;19.30;99.90
6164;DHT22;3114;48.362;10.994;2023-03-19T14:58:22;18.70;99.90
6164;DHT22;3114;48.362;10.994;2023-03-19T15:00:51;19.30;99.90
6164;DHT22;3114;48.362;10.994;2023-03-19T15:03:22;19.30;99.90
6164;DHT22;3114;48.362;10.994;2023-03-19T15:05:56;19.40;99.90
6164;DHT22;3114;48.362;10.994;2023-03-19T15:08:25;19.40;99.90
6164;DHT22;3114;48.362;10.994;2023-03-19T15:11:01;19.50;99.90
6164;DHT22;3114;48.362;10.994;2023-03-19T15:13:53;19.70;99.90
6164;DHT22;3114;48.362;10.994;2023-03-19T15:16:31;19.60;99.90
6164;DHT22;3114;48.362;10.994;2023-03-19T15:19:01;19.40;99.90
6164;DHT22;3114;48.362;10.994;2023-03-19T15:21:30;19.30;99.90
6164;DHT22;3114;48.362;10.994;2023-03-19T15:23:57;19.00;99.90
6164;DHT22;3114;48.362;10.994;2023-03-19T15:26:31;19.10;99.90
6164;DHT22;3114;48.362;10.994;2023-03-19T15:28:59;18.90;99.90
6164;DHT22;3114;48.362;10.994;2023-03-19T15:31:40;18.90;99.90
6164;DHT22;3114;48.362;10.994;2023-03-19T15:34:27;18.70;99.90
6164;DHT22;3114;48.362;10.994;2023-03-19T15:36:59;18.50;99.90
6164;DHT22;3114;48.362;10.994;2023-03-19T15:39:33;18.40;99.90
6164;DHT22;3114;48.362;10.994;2023-03-19T15:42:04;18.30;99.90
6164;DHT22;3114;48.362;10.994;2023-03-19T15:44:34;18.30;99.90
6164;DHT22;3114;48.362;10.994;2023-03-19T15:47:05;18.30;99.90
6164;DHT22;3114;48.362;10.994;2023-03-19T15:49:37;18.20;99.90
6164;DHT22;3114;48.362;10.994;2023-03-19T15:52:09;18.40;99.90
6164;DHT22;3114;48.362;10.994;2023-03-19T15:54:37;18.50;99.90
6164;DHT22;3114;48.362;10.994;2023-03-19T15:57:06;18.50;99.90
6164;DHT22;3114;48.362;10.994;2023-03-19T15:59:33;18.40;99.90
6164;DHT22;3114;48.362;10.994;2023-03-19T16:02:13;18.40;99.90
6164;DHT22;3114;48.362;10.994;2023-03-19T16:04:45;18.40;99.90
6164;DHT22;3114;48.362;10.994;2023-03-19T16:07:22;18.30;99.90
6164;DHT22;3114;48.362;10.994;2023-03-19T16:09:50;18.10;99.90
6164;DHT22;3114;48.362;10.994;2023-03-19T16:12:37;18.10;99.90